Time;durP1;ratioP1;P1;durP2;ratioP2;P2;SDS_P1;SDS_P2;PMS_P1;PMS_P2;Temp;Humidity;BMP_temperature;BMP_pressure;BME280_temperature;BME280_humidity;BME280_pressure;Samples;Min_cycle;Max_cycle;Signal;HPM_P1;HPM_P2
2020/12/02 00:02:31;;;;;;;52.55;33.13;;;;;;;;;;5075409;28;20176;-74
2020/12/02 00:05:03;;;;;;;51.80;32.53;;;;;;;;;;5074605;28;20651;-76
2020/12/02 00:07:31;;;;;;;61.22;35.35;;;;;;;;;;5075361;28;20236;-74
2020/12/02 00:09:57;;;;;;;54.67;33.83;;;;;;;;;;5078315;28;20293;-75
2020/12/02 00:12:23;;;;;;;60.50;35.45;;;;;;;;;;5092656;28;20175;-76
2020/12/02 00:14:50;;;;;;;53.05;32.63;;;;;;;;;;5087364;28;20233;-74
2020/12/02 00:17:17;;;;;;;56.60;34.22;;;;;;;;;;5085284;28;20187;-74
2020/12/02 00:19:43;;;;;;;53.95;33.85;;;;;;;;;;5074024;28;20191;-71
2020/12/02 00:22:17;;;;;;;53.78;34.60;;;;;;;;;;5092728;28;20494;-75
2020/12/02 00:24:43;;;;;;;51.65;33.40;;;;;;;;;;5081878;28;20179;-75
2020/12/02 00:27:16;;;;;;;52.72;33.08;;;;;;;;;;5078498;28;20250;-74
2020/12/02 00:29:43;;;;;;;55.80;32.80;;;;;;;;;;5083163;28;20544;-73
2020/12/02 00:32:09;;;;;;;53.05;33.50;;;;;;;;;;5091211;28;20391;-74
2020/12/02 00:34:35;;;;;;;53.30;34.17;;;;;;;;;;5080500;28;20866;-74
2020/12/02 00:37:01;;;;;;;53.40;33.97;;;;;;;;;;5085686;28;20219;-72
2020/12/02 00:39:27;;;;;;;58.50;33.92;;;;;;;;;;5072234;28;20180;-74
2020/12/02 00:41:53;;;;;;;59.83;35.65;;;;;;;;;;5081336;28;20184;-75
2020/12/02 00:44:19;;;;;;;53.50;33.15;;;;;;;;;;5081226;28;20188;-74
2020/12/02 00:46:47;;;;;;;56.65;33.28;;;;;;;;;;5091200;28;20228;-73
2020/12/02 00:49:13;;;;;;;53.35;34.53;;;;;;;;;;5090204;28;20201;-73
2020/12/02 00:51:39;;;;;;;53.75;33.40;;;;;;;;;;5094396;28;20834;-73
2020/12/02 00:54:06;;;;;;;56.38;36.20;;;;;;;;;;5083490;28;20187;-74
2020/12/02 00:56:32;;;;;;;59.75;35.50;;;;;;;;;;5079310;28;20179;-72
2020/12/02 00:59:20;;;;;;;56.20;33.20;;;;;;;;;;5095117;28;20282;-73
2020/12/02 01:02:03;;;;;;;52.67;33.10;;;;;;;;;;5090066;28;20636;-75
2020/12/02 01:04:29;;;;;;;53.53;32.83;;;;;;;;;;5095197;28;20220;-75
2020/12/02 01:06:56;;;;;;;54.53;34.53;;;;;;;;;;5085886;28;20184;-72
2020/12/02 01:09:23;;;;;;;54.00;33.45;;;;;;;;;;5076881;28;20195;-76
2020/12/02 01:11:50;;;;;;;51.92;33.47;;;;;;;;;;5096515;28;20211;-72
2020/12/02 01:14:17;;;;;;;54.45;34.15;;;;;;;;;;5092093;28;20210;-76
2020/12/02 01:16:44;;;;;;;51.85;33.28;;;;;;;;;;5095466;28;20183;-76
2020/12/02 01:19:12;;;;;;;54.50;34.20;;;;;;;;;;5094176;28;20241;-75
2020/12/02 01:21:38;;;;;;;61.15;35.88;;;;;;;;;;5085198;28;20176;-75
2020/12/02 01:24:07;;;;;;;56.20;34.28;;;;;;;;;;5094819;28;20258;-76
2020/12/02 01:26:43;;;;;;;52.70;33.88;;;;;;;;;;5095254;28;20175;-75
2020/12/02 01:29:21;;;;;;;55.20;34.95;;;;;;;;;;5095952;28;20282;-75
2020/12/02 01:31:48;;;;;;;53.20;34.42;;;;;;;;;;5096022;28;20282;-74
2020/12/02 01:34:15;;;;;;;54.25;33.83;;;;;;;;;;5094757;28;20532;-72
2020/12/02 01:36:56;;;;;;;54.63;35.30;;;;;;;;;;5094512;28;20220;-75
2020/12/02 01:39:23;;;;;;;55.10;33.05;;;;;;;;;;5094955;28;20536;-75
2020/12/02 01:41:49;;;;;;;54.67;34.85;;;;;;;;;;5094894;28;20187;-73
2020/12/02 01:44:16;;;;;;;51.63;32.92;;;;;;;;;;5094510;28;20618;-75
2020/12/02 01:47:06;;;;;;;56.72;35.70;;;;;;;;;;5092337;28;20266;-73
2020/12/02 01:49:50;;;;;;;53.55;33.55;;;;;;;;;;5074585;28;20244;-72
2020/12/02 01:52:16;;;;;;;51.78;33.97;;;;;;;;;;5091383;28;20270;-75
2020/12/02 01:54:45;;;;;;;55.92;34.22;;;;;;;;;;5091892;28;20207;-73
2020/12/02 01:57:19;;;;;;;56.03;34.50;;;;;;;;;;5081936;28;20601;-74
2020/12/02 01:59:52;;;;;;;54.05;33.35;;;;;;;;;;5088132;28;20245;-74
2020/12/02 02:02:37;;;;;;;60.22;34.38;;;;;;;;;;5093761;28;20179;-74
2020/12/02 02:05:09;;;;;;;55.90;34.28;;;;;;;;;;5084058;28;20180;-77
2020/12/02 02:07:36;;;;;;;52.47;33.70;;;;;;;;;;5088536;28;20191;-76
2020/12/02 02:10:22;;;;;;;58.67;33.83;;;;;;;;;;5096064;28;20202;-76
2020/12/02 02:13:00;;;;;;;53.47;32.33;;;;;;;;;;5090423;28;20210;-75
2020/12/02 02:15:47;;;;;;;54.90;33.30;;;;;;;;;;5093329;28;20580;-78
2020/12/02 02:18:15;;;;;;;55.97;34.50;;;;;;;;;;5082781;28;20521;-74
2020/12/02 02:20:44;;;;;;;51.83;32.85;;;;;;;;;;5082876;28;20518;-74
2020/12/02 02:23:11;;;;;;;52.95;33.50;;;;;;;;;;5092910;28;20544;-77
2020/12/02 02:25:37;;;;;;;53.63;32.58;;;;;;;;;;5092475;28;20281;-74
2020/12/02 02:28:04;;;;;;;55.30;33.22;;;;;;;;;;5093748;28;20680;-73
2020/12/02 02:30:30;;;;;;;52.17;34.42;;;;;;;;;;5089245;28;20649;-72
2020/12/02 02:32:57;;;;;;;59.40;35.78;;;;;;;;;;5073827;28;20172;-76
2020/12/02 02:35:23;;;;;;;55.00;35.40;;;;;;;;;;5086296;28;20183;-73
2020/12/02 02:37:49;;;;;;;52.10;32.38;;;;;;;;;;5084552;28;20196;-72
2020/12/02 02:40:15;;;;;;;51.38;33.70;;;;;;;;;;5093670;28;20178;-73
2020/12/02 02:42:46;;;;;;;52.00;32.40;;;;;;;;;;5093864;28;20194;-74
2020/12/02 02:45:12;;;;;;;54.47;35.70;;;;;;;;;;5093081;28;20198;-74
2020/12/02 02:47:38;;;;;;;51.10;33.35;;;;;;;;;;5082713;28;20672;-75
2020/12/02 02:50:12;;;;;;;54.25;35.00;;;;;;;;;;5073507;28;20592;-75
2020/12/02 02:52:39;;;;;;;57.85;34.63;;;;;;;;;;5083471;28;20182;-74
2020/12/02 02:55:07;;;;;;;52.75;34.03;;;;;;;;;;5091802;28;20236;-73
2020/12/02 02:57:33;;;;;;;51.38;33.05;;;;;;;;;;5081069;28;20195;-71
2020/12/02 02:59:59;;;;;;;53.75;33.78;;;;;;;;;;5092078;28;20194;-76
2020/12/02 03:02:25;;;;;;;54.03;33.65;;;;;;;;;;5081454;28;20188;-75
2020/12/02 03:04:51;;;;;;;52.78;34.45;;;;;;;;;;5074229;28;20180;-73
2020/12/02 03:07:17;;;;;;;52.50;33.47;;;;;;;;;;5093022;28;20573;-73
2020/12/02 03:09:44;;;;;;;47.67;32.10;;;;;;;;;;5095445;28;20190;-75
2020/12/02 03:12:11;;;;;;;53.95;34.88;;;;;;;;;;5085624;28;20217;-75
2020/12/02 03:14:41;;;;;;;53.17;33.47;;;;;;;;;;5091982;28;20517;-77
2020/12/02 03:17:08;;;;;;;53.90;34.35;;;;;;;;;;5080524;28;20226;-73
2020/12/02 03:19:34;;;;;;;50.08;33.20;;;;;;;;;;5084963;28;20172;-74
2020/12/02 03:22:04;;;;;;;53.60;33.95;;;;;;;;;;5091093;28;20232;-75
2020/12/02 03:24:30;;;;;;;50.90;32.47;;;;;;;;;;5092095;28;20236;-76
2020/12/02 03:26:57;;;;;;;51.10;33.13;;;;;;;;;;5093420;28;20489;-75
2020/12/02 03:29:23;;;;;;;48.67;32.67;;;;;;;;;;5088532;28;20183;-73
2020/12/02 03:31:49;;;;;;;49.80;32.50;;;;;;;;;;5092844;28;20207;-76
2020/12/02 03:34:16;;;;;;;50.42;31.40;;;;;;;;;;5086301;28;20223;-73
2020/12/02 03:36:43;;;;;;;52.35;32.00;;;;;;;;;;5086474;28;20633;-73
2020/12/02 03:39:09;;;;;;;52.70;34.13;;;;;;;;;;5092883;28;20179;-75
2020/12/02 03:41:36;;;;;;;52.03;32.38;;;;;;;;;;5093503;28;20517;-75
2020/12/02 03:44:02;;;;;;;50.75;31.80;;;;;;;;;;5083438;28;20262;-73
2020/12/02 03:46:28;;;;;;;50.30;32.30;;;;;;;;;;5097252;28;20237;-73
2020/12/02 03:48:54;;;;;;;49.25;31.80;;;;;;;;;;5091819;28;20688;-74
2020/12/02 03:51:21;;;;;;;51.85;31.77;;;;;;;;;;5096756;28;20198;-72
2020/12/02 03:53:47;;;;;;;52.55;32.05;;;;;;;;;;5083302;28;20175;-75
2020/12/02 03:56:14;;;;;;;48.22;31.70;;;;;;;;;;5095432;28;20180;-76
2020/12/02 03:58:41;;;;;;;49.45;33.15;;;;;;;;;;5085013;28;20215;-75
2020/12/02 04:01:07;;;;;;;52.08;32.75;;;;;;;;;;5095991;28;20537;-75
2020/12/02 04:03:37;;;;;;;49.38;32.50;;;;;;;;;;5097088;28;20175;-74
2020/12/02 04:06:04;;;;;;;51.13;34.47;;;;;;;;;;5096291;28;20285;-76
2020/12/02 04:08:30;;;;;;;51.00;33.03;;;;;;;;;;5082390;28;20224;-75
2020/12/02 04:10:56;;;;;;;49.42;31.70;;;;;;;;;;5096364;28;20195;-74
2020/12/02 04:13:22;;;;;;;53.25;34.00;;;;;;;;;;5096540;28;20175;-73
2020/12/02 04:15:48;;;;;;;47.13;30.92;;;;;;;;;;5096186;28;20183;-74
2020/12/02 04:18:14;;;;;;;54.40;32.95;;;;;;;;;;5096268;28;20187;-76
2020/12/02 04:20:40;;;;;;;49.95;31.40;;;;;;;;;;5093952;28;20183;-75
2020/12/02 04:23:06;;;;;;;54.50;34.03;;;;;;;;;;5092979;28;20212;-73
2020/12/02 04:25:32;;;;;;;47.95;32.50;;;;;;;;;;5092987;28;20183;-74
2020/12/02 04:27:59;;;;;;;57.97;36.50;;;;;;;;;;5079077;28;20600;-74
2020/12/02 04:30:25;;;;;;;58.30;36.30;;;;;;;;;;5081343;28;20183;-72
2020/12/02 04:32:51;;;;;;;77.53;43.92;;;;;;;;;;5079140;28;20204;-74
2020/12/02 04:35:18;;;;;;;60.63;33.03;;;;;;;;;;5079382;28;20173;-72
2020/12/02 04:37:44;;;;;;;63.83;37.20;;;;;;;;;;5075846;28;20195;-74
2020/12/02 04:40:15;;;;;;;54.75;33.60;;;;;;;;;;5085988;28;20179;-75
2020/12/02 04:42:44;;;;;;;47.63;31.73;;;;;;;;;;5078411;28;20304;-74
2020/12/02 04:45:12;;;;;;;50.35;31.67;;;;;;;;;;5084038;28;20246;-74
2020/12/02 04:47:40;;;;;;;47.65;31.23;;;;;;;;;;5075801;28;20553;-75
2020/12/02 04:50:18;;;;;;;45.95;29.75;;;;;;;;;;5083067;28;20215;-74
2020/12/02 04:52:52;;;;;;;47.85;30.63;;;;;;;;;;5075986;28;20172;-76
2020/12/02 04:55:18;;;;;;;48.78;30.85;;;;;;;;;;5093558;28;20203;-73
2020/12/02 04:57:44;;;;;;;43.13;30.23;;;;;;;;;;5082198;28;20553;-73
2020/12/02 05:00:27;;;;;;;44.97;30.85;;;;;;;;;;5075517;28;20184;-74
2020/12/02 05:03:04;;;;;;;47.13;31.55;;;;;;;;;;5091338;28;20190;-75
2020/12/02 05:05:30;;;;;;;47.88;30.58;;;;;;;;;;5095332;28;20497;-78
2020/12/02 05:07:56;;;;;;;42.92;28.67;;;;;;;;;;5095055;28;20212;-76
2020/12/02 05:10:22;;;;;;;45.80;30.33;;;;;;;;;;5102468;28;20195;-76
2020/12/02 05:12:48;;;;;;;53.55;32.67;;;;;;;;;;5091708;28;20176;-75
2020/12/02 05:15:20;;;;;;;44.10;29.55;;;;;;;;;;5095088;28;20172;-74
2020/12/02 05:18:01;;;;;;;44.13;30.60;;;;;;;;;;5095444;28;20209;-73
2020/12/02 05:20:27;;;;;;;46.03;31.10;;;;;;;;;;5087254;28;20540;-73
2020/12/02 05:22:53;;;;;;;43.30;29.83;;;;;;;;;;5095187;28;20581;-74
2020/12/02 05:25:25;;;;;;;42.40;29.80;;;;;;;;;;5093471;28;20307;-72
2020/12/02 05:27:55;;;;;;;42.35;29.63;;;;;;;;;;5082259;28;20195;-73
2020/12/02 05:30:29;;;;;;;43.90;29.60;;;;;;;;;;5095294;28;20236;-72
2020/12/02 05:33:14;;;;;;;44.72;30.30;;;;;;;;;;5086373;28;20529;-74
2020/12/02 05:35:48;;;;;;;46.22;30.35;;;;;;;;;;5080689;28;20218;-76
2020/12/02 05:38:18;;;;;;;43.55;29.15;;;;;;;;;;5094922;28;20240;-75
2020/12/02 05:40:45;;;;;;;47.35;31.60;;;;;;;;;;5096276;28;20171;-73
2020/12/02 05:43:23;;;;;;;45.42;31.02;;;;;;;;;;5095130;28;20552;-75
2020/12/02 05:45:50;;;;;;;44.50;29.15;;;;;;;;;;5081993;28;20559;-74
2020/12/02 05:48:29;;;;;;;47.30;30.73;;;;;;;;;;5094327;28;20191;-74
2020/12/02 05:50:56;;;;;;;48.88;30.50;;;;;;;;;;5094773;28;20211;-76
2020/12/02 05:53:22;;;;;;;46.03;31.13;;;;;;;;;;5091952;28;20171;-73
2020/12/02 05:55:48;;;;;;;47.40;29.42;;;;;;;;;;5086936;28;20174;-76
2020/12/02 05:58:28;;;;;;;48.00;30.15;;;;;;;;;;5076447;28;20283;-74
2020/12/02 06:00:54;;;;;;;50.92;30.92;;;;;;;;;;5087213;28;20544;-75
2020/12/02 06:03:30;;;;;;;47.95;31.92;;;;;;;;;;5094551;28;20202;-73
2020/12/02 06:06:04;;;;;;;42.05;28.15;;;;;;;;;;5078367;28;20184;-73
2020/12/02 06:08:50;;;;;;;46.00;29.17;;;;;;;;;;5078158;28;20215;-74
2020/12/02 06:11:16;;;;;;;43.25;28.45;;;;;;;;;;5099130;28;20743;-73
2020/12/02 06:13:48;;;;;;;44.10;28.67;;;;;;;;;;5085907;28;20175;-75
2020/12/02 06:16:20;;;;;;;45.95;29.40;;;;;;;;;;5088167;28;20190;-75
2020/12/02 06:18:46;;;;;;;47.72;31.60;;;;;;;;;;5073992;28;20188;-72
2020/12/02 06:21:31;;;;;;;44.60;29.90;;;;;;;;;;5075435;28;20191;-74
2020/12/02 06:23:57;;;;;;;46.50;30.67;;;;;;;;;;5080056;28;20222;-71
2020/12/02 06:26:33;;;;;;;45.80;29.60;;;;;;;;;;5086965;28;20190;-73
2020/12/02 06:29:00;;;;;;;43.92;30.20;;;;;;;;;;5094199;28;20736;-72
2020/12/02 06:31:27;;;;;;;46.40;29.90;;;;;;;;;;5094038;28;20199;-75
2020/12/02 06:33:53;;;;;;;44.67;30.23;;;;;;;;;;5089418;28;20718;-75
2020/12/02 06:36:28;;;;;;;47.47;30.83;;;;;;;;;;5074524;28;20621;-73
2020/12/02 06:39:14;;;;;;;47.30;30.30;;;;;;;;;;5084269;28;20283;-75
2020/12/02 06:41:44;;;;;;;45.05;30.02;;;;;;;;;;5079650;28;20183;-74
2020/12/02 06:44:13;;;;;;;45.03;31.20;;;;;;;;;;5073381;28;20179;-76
2020/12/02 06:46:42;;;;;;;49.88;32.63;;;;;;;;;;5086928;28;20199;-75
2020/12/02 06:49:08;;;;;;;50.83;31.10;;;;;;;;;;5074378;28;20624;-74
2020/12/02 06:51:35;;;;;;;53.15;30.80;;;;;;;;;;5073412;28;20203;-74
2020/12/02 06:54:01;;;;;;;47.65;30.67;;;;;;;;;;5082461;28;20183;-75
2020/12/02 06:56:27;;;;;;;45.33;30.08;;;;;;;;;;5090333;28;20169;-72
2020/12/02 06:59:06;;;;;;;48.03;30.55;;;;;;;;;;5073286;28;20551;-76
2020/12/02 07:01:33;;;;;;;45.42;30.98;;;;;;;;;;5091350;28;20543;-75
2020/12/02 07:04:06;;;;;;;44.55;28.90;;;;;;;;;;5081311;28;20187;-75
2020/12/02 07:06:33;;;;;;;46.72;31.33;;;;;;;;;;5078554;28;20183;-73
2020/12/02 07:09:16;;;;;;;42.40;29.27;;;;;;;;;;5093156;28;20260;-73
2020/12/02 07:12:08;;;;;;;46.55;29.90;;;;;;;;;;5082355;28;20195;-73
2020/12/02 07:14:36;;;;;;;46.53;29.17;;;;;;;;;;5077907;28;20188;-75
2020/12/02 07:17:04;;;;;;;43.67;29.00;;;;;;;;;;5073103;28;20179;-72
2020/12/02 07:19:32;;;;;;;42.65;28.85;;;;;;;;;;5081172;28;20168;-75
2020/12/02 07:22:01;;;;;;;44.78;30.52;;;;;;;;;;5077197;28;20229;-74
2020/12/02 07:24:29;;;;;;;45.45;29.02;;;;;;;;;;5072674;28;20233;-77
2020/12/02 07:26:56;;;;;;;43.60;29.63;;;;;;;;;;5072925;28;20226;-78
2020/12/02 07:29:24;;;;;;;48.17;29.65;;;;;;;;;;5080368;28;20183;-75
2020/12/02 07:31:56;;;;;;;45.90;30.08;;;;;;;;;;5093579;28;20203;-75
2020/12/02 07:34:23;;;;;;;40.78;28.15;;;;;;;;;;5093001;28;20206;-75
2020/12/02 07:36:55;;;;;;;44.05;29.05;;;;;;;;;;5093143;28;20263;-75
2020/12/02 07:39:22;;;;;;;38.45;26.50;;;;;;;;;;5086944;28;20190;-77
2020/12/02 07:41:59;;;;;;;41.20;27.80;;;;;;;;;;5083937;28;20176;-75
2020/12/02 07:44:26;;;;;;;43.42;28.50;;;;;;;;;;5094397;28;20179;-75
2020/12/02 07:46:55;;;;;;;44.40;29.98;;;;;;;;;;5090973;28;20176;-74
2020/12/02 07:49:21;;;;;;;44.72;29.35;;;;;;;;;;5074594;28;20187;-76
2020/12/02 07:51:50;;;;;;;42.95;28.13;;;;;;;;;;5078836;28;20598;-79
2020/12/02 07:54:18;;;;;;;40.00;27.50;;;;;;;;;;5077754;28;20183;-77
2020/12/02 07:56:46;;;;;;;45.30;29.50;;;;;;;;;;5088055;28;20180;-75
2020/12/02 07:59:20;;;;;;;41.50;28.13;;;;;;;;;;5081665;28;20172;-75
2020/12/02 08:01:54;;;;;;;41.75;27.27;;;;;;;;;;5088448;28;20182;-75
2020/12/02 08:04:23;;;;;;;42.97;28.92;;;;;;;;;;5089049;28;20262;-76
2020/12/02 08:06:58;;;;;;;43.97;29.95;;;;;;;;;;5089134;28;20194;-73
2020/12/02 08:09:24;;;;;;;42.20;28.80;;;;;;;;;;5084329;28;20191;-74
2020/12/02 08:12:00;;;;;;;38.13;27.00;;;;;;;;;;5078337;28;20211;-75
2020/12/02 08:14:32;;;;;;;42.88;27.75;;;;;;;;;;5087466;28;20536;-75
2020/12/02 08:17:18;;;;;;;47.83;31.05;;;;;;;;;;5087664;28;20650;-77
2020/12/02 08:19:47;;;;;;;43.38;28.30;;;;;;;;;;5068806;28;20188;-76
2020/12/02 08:22:19;;;;;;;38.92;27.15;;;;;;;;;;5086047;28;20194;-74
2020/12/02 08:24:45;;;;;;;42.38;28.15;;;;;;;;;;5085003;28;20228;-77
2020/12/02 08:27:13;;;;;;;47.22;29.83;;;;;;;;;;5088699;28;20715;-75
2020/12/02 08:29:39;;;;;;;42.72;27.98;;;;;;;;;;5079351;28;20188;-76
2020/12/02 08:32:08;;;;;;;40.33;28.65;;;;;;;;;;5072712;28;20207;-75
2020/12/02 08:34:35;;;;;;;40.28;27.38;;;;;;;;;;5084332;28;20764;-77
2020/12/02 08:37:11;;;;;;;43.50;28.65;;;;;;;;;;5086589;28;20212;-76
2020/12/02 08:39:38;;;;;;;45.45;29.65;;;;;;;;;;5079213;28;20178;-77
2020/12/02 08:42:04;;;;;;;42.13;28.48;;;;;;;;;;5077863;28;20187;-77
2020/12/02 08:44:30;;;;;;;42.90;29.63;;;;;;;;;;5083571;28;20183;-76
2020/12/02 08:47:08;;;;;;;42.92;28.65;;;;;;;;;;5092032;28;20171;-76
2020/12/02 08:49:35;;;;;;;40.65;28.17;;;;;;;;;;5088019;28;20190;-76
2020/12/02 08:52:01;;;;;;;43.20;28.40;;;;;;;;;;5092237;28;20207;-76
2020/12/02 08:54:27;;;;;;;40.47;27.13;;;;;;;;;;5090723;28;20179;-75
2020/12/02 08:57:04;;;;;;;39.65;27.48;;;;;;;;;;5080755;28;20553;-74
2020/12/02 08:59:30;;;;;;;38.42;26.88;;;;;;;;;;5091738;28;20179;-77
2020/12/02 09:02:02;;;;;;;40.45;27.15;;;;;;;;;;5086743;28;20254;-74
2020/12/02 09:04:28;;;;;;;43.83;26.80;;;;;;;;;;5090784;28;20190;-73
2020/12/02 09:06:54;;;;;;;37.65;24.77;;;;;;;;;;5092178;28;20251;-75
2020/12/02 09:09:21;;;;;;;38.60;25.85;;;;;;;;;;5090130;28;20195;-72
2020/12/02 09:11:47;;;;;;;36.95;25.67;;;;;;;;;;5083510;28;20203;-74
2020/12/02 09:14:13;;;;;;;37.10;26.65;;;;;;;;;;5079318;28;20182;-72
2020/12/02 09:16:40;;;;;;;37.13;26.10;;;;;;;;;;5079788;28;20404;-74
2020/12/02 09:19:07;;;;;;;39.60;26.00;;;;;;;;;;5075650;28;20207;-73
2020/12/02 09:21:34;;;;;;;39.50;26.40;;;;;;;;;;5081373;28;20234;-75
2020/12/02 09:24:00;;;;;;;40.50;25.13;;;;;;;;;;5070992;28;20189;-74
2020/12/02 09:26:31;;;;;;;41.03;25.65;;;;;;;;;;5071048;28;20581;-76
2020/12/02 09:28:57;;;;;;;39.20;27.38;;;;;;;;;;5071314;28;20200;-73
2020/12/02 09:31:24;;;;;;;35.10;25.85;;;;;;;;;;5087791;28;20552;-74
2020/12/02 09:33:51;;;;;;;41.15;27.73;;;;;;;;;;5091033;28;20280;-73
2020/12/02 09:36:18;;;;;;;38.13;27.10;;;;;;;;;;5086327;28;20180;-73
2020/12/02 09:38:45;;;;;;;41.65;28.40;;;;;;;;;;5071079;28;20200;-76
2020/12/02 09:41:24;;;;;;;41.15;27.42;;;;;;;;;;5079513;28;20183;-74
2020/12/02 09:44:09;;;;;;;38.58;26.27;;;;;;;;;;5070610;28;20191;-75
2020/12/02 09:46:35;;;;;;;42.40;26.17;;;;;;;;;;5084334;28;20187;-75
2020/12/02 09:49:01;;;;;;;39.10;25.40;;;;;;;;;;5091115;28;20252;-75
2020/12/02 09:51:29;;;;;;;37.97;28.13;;;;;;;;;;5083853;28;20203;-74
2020/12/02 09:53:56;;;;;;;38.92;26.42;;;;;;;;;;5070216;28;20184;-76
2020/12/02 09:56:23;;;;;;;40.58;27.48;;;;;;;;;;5086415;28;20199;-75
2020/12/02 09:58:49;;;;;;;39.92;26.80;;;;;;;;;;5086102;28;20285;-77
2020/12/02 10:01:17;;;;;;;38.53;28.35;;;;;;;;;;5070741;28;20179;-77
2020/12/02 10:03:43;;;;;;;42.53;28.15;;;;;;;;;;5084185;28;20180;-74
2020/12/02 10:06:18;;;;;;;37.83;26.88;;;;;;;;;;5090569;28;20194;-74
2020/12/02 10:08:47;;;;;;;42.60;28.27;;;;;;;;;;5089535;28;20210;-74
2020/12/02 10:11:30;;;;;;;41.40;27.27;;;;;;;;;;5090973;28;20199;-76
2020/12/02 10:14:16;;;;;;;39.20;27.33;;;;;;;;;;5088947;28;20679;-74
2020/12/02 10:16:58;;;;;;;42.05;28.38;;;;;;;;;;5087746;28;20209;-73
2020/12/02 10:19:24;;;;;;;40.25;27.45;;;;;;;;;;5090906;28;20183;-73
2020/12/02 10:22:10;;;;;;;40.42;28.38;;;;;;;;;;5084820;28;20215;-73
2020/12/02 10:24:45;;;;;;;43.67;29.73;;;;;;;;;;5072237;28;20176;-73
2020/12/02 10:27:26;;;;;;;41.03;28.48;;;;;;;;;;5090378;28;20225;-76
2020/12/02 10:30:12;;;;;;;41.17;27.48;;;;;;;;;;5090675;28;20187;-74
2020/12/02 10:32:57;;;;;;;40.03;27.83;;;;;;;;;;5083548;28;20211;-76
2020/12/02 10:35:23;;;;;;;39.80;27.95;;;;;;;;;;5069896;28;20545;-77
2020/12/02 10:37:49;;;;;;;39.50;27.60;;;;;;;;;;5087785;28;20564;-76
2020/12/02 10:40:16;;;;;;;45.17;28.50;;;;;;;;;;5090065;28;20179;-74
2020/12/02 10:42:50;;;;;;;40.85;28.05;;;;;;;;;;5089772;28;20240;-75
2020/12/02 10:45:17;;;;;;;45.20;29.15;;;;;;;;;;5070550;28;20182;-75
2020/12/02 10:47:49;;;;;;;42.15;27.90;;;;;;;;;;5082686;28;20192;-76
2020/12/02 10:50:20;;;;;;;43.35;28.65;;;;;;;;;;5070921;28;20263;-76
2020/12/02 10:52:47;;;;;;;43.75;29.77;;;;;;;;;;5072731;28;20649;-76
2020/12/02 10:55:15;;;;;;;42.95;28.23;;;;;;;;;;5089647;28;20203;-72
2020/12/02 10:57:42;;;;;;;41.97;30.48;;;;;;;;;;5089643;28;20223;-74
2020/12/02 11:00:09;;;;;;;44.72;30.35;;;;;;;;;;5074420;28;20655;-73
2020/12/02 11:02:35;;;;;;;44.00;31.42;;;;;;;;;;5069394;28;20568;-75
2020/12/02 11:05:01;;;;;;;45.20;29.92;;;;;;;;;;5069227;28;20267;-73
2020/12/02 11:07:30;;;;;;;38.97;28.50;;;;;;;;;;5070224;28;20194;-76
2020/12/02 11:10:07;;;;;;;41.38;29.38;;;;;;;;;;5073354;28;20227;-73
2020/12/02 11:12:49;;;;;;;42.72;29.52;;;;;;;;;;5072602;28;20191;-74
2020/12/02 11:15:24;;;;;;;45.58;29.58;;;;;;;;;;5076585;28;20233;-76
2020/12/02 11:17:56;;;;;;;42.72;29.85;;;;;;;;;;5072992;28;20202;-74
2020/12/02 11:20:26;;;;;;;42.08;29.58;;;;;;;;;;5089446;28;20206;-76
2020/12/02 11:23:13;;;;;;;47.45;30.98;;;;;;;;;;5089582;28;20266;-76
2020/12/02 11:25:57;;;;;;;41.83;28.80;;;;;;;;;;5082144;28;20770;-77
2020/12/02 11:28:23;;;;;;;43.00;28.67;;;;;;;;;;5082127;28;20249;-75
2020/12/02 11:30:49;;;;;;;43.88;30.80;;;;;;;;;;5089590;28;20203;-74
2020/12/02 11:33:34;;;;;;;43.72;29.98;;;;;;;;;;5089428;28;20179;-74
2020/12/02 11:36:15;;;;;;;46.35;30.63;;;;;;;;;;5071296;28;20176;-75
2020/12/02 11:38:50;;;;;;;44.25;29.20;;;;;;;;;;5078125;28;20286;-74
2020/12/02 11:41:31;;;;;;;43.58;30.13;;;;;;;;;;5089686;28;20218;-76
2020/12/02 11:44:02;;;;;;;47.88;31.92;;;;;;;;;;5083531;28;20651;-78
2020/12/02 11:46:29;;;;;;;44.38;30.63;;;;;;;;;;5088169;28;20541;-77
2020/12/02 11:49:07;;;;;;;46.97;32.03;;;;;;;;;;5071242;28;20214;-75
2020/12/02 11:51:51;;;;;;;44.53;31.48;;;;;;;;;;5079518;28;20206;-75
2020/12/02 11:54:17;;;;;;;44.30;29.90;;;;;;;;;;5077323;28;20187;-76
2020/12/02 11:56:48;;;;;;;43.90;30.65;;;;;;;;;;5089755;28;20182;-76
2020/12/02 11:59:16;;;;;;;43.60;29.45;;;;;;;;;;5089059;28;20171;-77
2020/12/02 12:01:45;;;;;;;42.10;29.83;;;;;;;;;;5083206;28;20184;-74
2020/12/02 12:04:22;;;;;;;41.95;29.95;;;;;;;;;;5071173;28;20199;-77
2020/12/02 12:06:51;;;;;;;41.67;28.55;;;;;;;;;;5082572;28;20206;-74
2020/12/02 12:09:20;;;;;;;41.13;29.63;;;;;;;;;;5088546;28;20661;-73
2020/12/02 12:11:46;;;;;;;43.65;30.35;;;;;;;;;;5083273;28;20597;-76
2020/12/02 12:14:27;;;;;;;43.72;29.80;;;;;;;;;;5090746;28;20183;-75
2020/12/02 12:17:07;;;;;;;44.80;30.88;;;;;;;;;;5091629;28;20186;-78
2020/12/02 12:19:42;;;;;;;43.83;30.52;;;;;;;;;;5084323;28;20608;-76
2020/12/02 12:22:27;;;;;;;42.50;29.45;;;;;;;;;;5088765;28;20720;-75
2020/12/02 12:24:55;;;;;;;42.20;28.08;;;;;;;;;;5079944;28;20590;-76
2020/12/02 12:27:21;;;;;;;45.88;30.35;;;;;;;;;;5085537;28;20239;-76
2020/12/02 12:29:47;;;;;;;42.47;29.92;;;;;;;;;;5086013;28;20194;-76
2020/12/02 12:32:40;;;;;;;43.70;30.15;;;;;;;;;;5092651;28;20230;-76
2020/12/02 12:35:26;;;;;;;43.25;29.80;;;;;;;;;;5086631;28;20244;-78
2020/12/02 12:37:58;;;;;;;45.97;30.05;;;;;;;;;;5076291;28;20234;-76
2020/12/02 12:40:27;;;;;;;43.30;29.33;;;;;;;;;;5072373;28;20600;-77
2020/12/02 12:42:54;;;;;;;41.85;30.08;;;;;;;;;;5072539;28;20248;-75
2020/12/02 12:45:32;;;;;;;44.75;30.20;;;;;;;;;;5083870;28;20168;-74
2020/12/02 12:47:58;;;;;;;48.20;28.80;;;;;;;;;;5086017;28;20641;-77
2020/12/02 12:50:24;;;;;;;45.50;29.38;;;;;;;;;;5072299;28;20237;-74
2020/12/02 12:52:51;;;;;;;43.05;29.42;;;;;;;;;;5082566;28;20231;-76
2020/12/02 12:55:17;;;;;;;42.78;29.98;;;;;;;;;;5071731;28;20176;-75
2020/12/02 12:57:47;;;;;;;42.70;29.52;;;;;;;;;;5084607;28;20199;-77
2020/12/02 13:00:13;;;;;;;47.40;31.48;;;;;;;;;;5083218;28;20189;-75
2020/12/02 13:02:39;;;;;;;42.95;29.55;;;;;;;;;;5077419;28;20175;-75
2020/12/02 13:05:06;;;;;;;42.83;30.30;;;;;;;;;;5080560;28;20541;-75
2020/12/02 13:07:35;;;;;;;44.40;30.80;;;;;;;;;;5073831;28;20265;-77
2020/12/02 13:10:22;;;;;;;44.25;29.73;;;;;;;;;;5087521;28;20172;-74
2020/12/02 13:12:54;;;;;;;43.83;31.08;;;;;;;;;;5087017;28;20533;-74
2020/12/02 13:15:34;;;;;;;44.78;29.83;;;;;;;;;;5086043;28;20273;-72
2020/12/02 13:18:07;;;;;;;41.92;28.52;;;;;;;;;;5091783;28;20281;-74
2020/12/02 13:20:37;;;;;;;41.70;28.48;;;;;;;;;;5084955;28;20270;-76
2020/12/02 13:23:10;;;;;;;42.22;29.15;;;;;;;;;;5091592;28;20550;-76
2020/12/02 13:25:38;;;;;;;43.60;30.38;;;;;;;;;;5084550;28;20179;-76
2020/12/02 13:28:11;;;;;;;40.50;28.33;;;;;;;;;;5088277;28;20298;-76
2020/12/02 13:30:41;;;;;;;45.28;30.05;;;;;;;;;;5076050;28;20219;-73
2020/12/02 13:33:14;;;;;;;43.75;29.92;;;;;;;;;;5089040;28;20182;-75
2020/12/02 13:35:40;;;;;;;44.15;29.67;;;;;;;;;;5088230;28;20179;-75
2020/12/02 13:38:07;;;;;;;43.38;29.58;;;;;;;;;;5091432;28;20199;-77
2020/12/02 13:40:34;;;;;;;45.95;30.58;;;;;;;;;;5091292;28;20183;-76
2020/12/02 13:43:01;;;;;;;42.30;29.40;;;;;;;;;;5072635;28;20571;-75
2020/12/02 13:45:31;;;;;;;41.03;29.15;;;;;;;;;;5082664;28;20187;-77
2020/12/02 13:47:58;;;;;;;43.50;30.40;;;;;;;;;;5077227;28;20222;-77
2020/12/02 13:50:29;;;;;;;41.90;28.85;;;;;;;;;;5090807;28;20168;-75
2020/12/02 13:52:58;;;;;;;43.15;29.75;;;;;;;;;;5070960;28;20986;-74
2020/12/02 13:55:30;;;;;;;42.53;28.02;;;;;;;;;;5077382;28;20175;-77
2020/12/02 13:58:08;;;;;;;42.85;28.90;;;;;;;;;;5088383;28;20191;-75
2020/12/02 14:00:34;;;;;;;44.10;31.80;;;;;;;;;;5087034;28;20183;-74
2020/12/02 14:03:08;;;;;;;46.10;31.58;;;;;;;;;;5090908;28;20594;-77
2020/12/02 14:05:52;;;;;;;47.08;31.20;;;;;;;;;;5072985;28;20188;-76
2020/12/02 14:08:19;;;;;;;43.70;30.40;;;;;;;;;;5077128;28;20215;-74
2020/12/02 14:10:45;;;;;;;47.67;31.20;;;;;;;;;;5083647;28;20214;-78
2020/12/02 14:13:11;;;;;;;43.63;30.23;;;;;;;;;;5090682;28;20505;-78
2020/12/02 14:15:38;;;;;;;47.17;32.05;;;;;;;;;;5084323;28;20587;-76
2020/12/02 14:18:05;;;;;;;44.85;31.40;;;;;;;;;;5090623;28;20552;-74
2020/12/02 14:20:32;;;;;;;44.33;30.20;;;;;;;;;;5088819;28;20194;-78
2020/12/02 14:22:58;;;;;;;43.90;29.02;;;;;;;;;;5089925;28;20540;-78
2020/12/02 14:25:26;;;;;;;42.10;29.85;;;;;;;;;;5075504;28;20184;-74
2020/12/02 14:27:53;;;;;;;43.78;30.60;;;;;;;;;;5072845;28;20208;-73
2020/12/02 14:30:24;;;;;;;44.25;28.95;;;;;;;;;;5070171;28;20180;-77
2020/12/02 14:32:51;;;;;;;46.97;29.52;;;;;;;;;;5071019;28;20599;-76
2020/12/02 14:35:19;;;;;;;45.97;30.05;;;;;;;;;;5069606;28;20207;-76